Time;durP1;ratioP1;P1;durP2;ratioP2;P2;SDS_P1;SDS_P2;PMS_P1;PMS_P2;Temp;Humidity;BMP_temperature;BMP_pressure;BME280_temperature;BME280_humidity;BME280_pressure;Samples;Min_cycle;Max_cycle;Signal;HPM_P1;HPM_P2
2022/01/19 00:01:21;;;;;;;47.90;21.98;;;0.50;2201.60;;;;;;5014817;28;20037;-71
2022/01/19 00:03:47;;;;;;;45.10;21.90;;;0.50;2201.60;;;;;;5009239;28;20030;-72
2022/01/19 00:06:14;;;;;;;34.22;18.80;;;0.50;2201.60;;;;;;4999734;28;20076;-72
2022/01/19 00:08:40;;;;;;;38.97;19.92;;;0.40;2201.60;;;;;;5014413;28;20029;-72
2022/01/19 00:11:06;;;;;;;41.55;20.73;;;0.40;2201.60;;;;;;5014074;28;20041;-71
2022/01/19 00:13:31;;;;;;;50.33;21.58;;;0.30;2201.60;;;;;;4996486;28;20469;-71
2022/01/19 00:15:57;;;;;;;46.13;24.02;;;0.30;2201.60;;;;;;5013720;28;20113;-71
2022/01/19 00:18:25;;;;;;;44.40;21.40;;;0.30;2201.60;;;;;;5013945;28;20030;-72
2022/01/19 00:20:53;;;;;;;46.85;20.67;;;0.20;2201.60;;;;;;4995887;28;20034;-71
2022/01/19 00:23:20;;;;;;;51.58;22.63;;;0.20;2201.60;;;;;;5014161;28;20132;-71
2022/01/19 00:25:47;;;;;;;40.67;20.58;;;0.30;2201.60;;;;;;4988587;28;20074;-72
2022/01/19 00:28:14;;;;;;;66.72;24.80;;;0.20;2201.60;;;;;;4990262;28;20112;-71
2022/01/19 00:30:41;;;;;;;44.20;20.83;;;0.30;2201.60;;;;;;5011180;28;20485;-71
2022/01/19 00:33:07;;;;;;;42.72;22.02;;;0.30;2201.60;;;;;;4995705;28;20374;-71
2022/01/19 00:35:36;;;;;;;43.38;18.88;;;0.30;2201.60;;;;;;4997031;28;20033;-71
2022/01/19 00:38:04;;;;;;;47.97;20.70;;;0.20;2201.60;;;;;;4996226;28;20042;-71
2022/01/19 00:40:30;;;;;;;41.30;19.88;;;0.30;2201.60;;;;;;5014236;28;20109;-71
2022/01/19 00:42:55;;;;;;;39.03;18.10;;;0.30;2201.60;;;;;;5012456;28;20046;-71
2022/01/19 00:45:22;;;;;;;40.13;19.95;;;0.30;2201.60;;;;;;4996031;28;20041;-71
2022/01/19 00:47:48;;;;;;;37.25;19.70;;;0.30;2201.60;;;;;;5013642;28;20054;-71
2022/01/19 00:50:18;;;;;;;34.40;18.23;;;0.40;2201.60;;;;;;4996495;28;20029;-72
2022/01/19 00:52:44;;;;;;;33.75;20.13;;;0.20;2201.60;;;;;;4995894;28;20034;-71
2022/01/19 00:55:12;;;;;;;42.05;19.33;;;0.30;2201.60;;;;;;5012785;28;20471;-71
2022/01/19 00:57:39;;;;;;;37.83;19.83;;;0.20;2201.60;;;;;;5011928;28;20038;-70
2022/01/19 01:00:08;;;;;;;44.60;21.75;;;0.20;2201.60;;;;;;5012184;28;20069;-70
2022/01/19 01:02:34;;;;;;;42.60;21.30;;;0.20;2201.60;;;;;;5012606;28;20089;-71
2022/01/19 01:05:00;;;;;;;41.40;18.98;;;0.10;2201.60;;;;;;5013457;28;20042;-71
2022/01/19 01:07:27;;;;;;;39.25;18.92;;;0.00;2201.60;;;;;;5013477;28;20049;-71
2022/01/19 01:09:54;;;;;;;32.63;17.27;;;0.00;2201.60;;;;;;5012343;28;20022;-71
2022/01/19 01:12:23;;;;;;;36.83;18.45;;;0.00;2201.60;;;;;;4995930;28;20037;-71
2022/01/19 01:20:20;;;;;;;30.75;17.70;;;0.10;2201.60;;;;;;5013159;28;20125;-71
2022/01/19 01:22:46;;;;;;;36.78;17.25;;;0.00;2201.60;;;;;;5013346;28;20034;-71
2022/01/19 01:25:12;;;;;;;38.70;16.90;;;12.90;2201.60;;;;;;5013077;28;20428;-71
2022/01/19 01:27:38;;;;;;;38.33;16.95;;;12.90;2201.60;;;;;;5011839;28;20038;-71
2022/01/19 01:30:06;;;;;;;36.10;18.60;;;12.90;2201.60;;;;;;5013124;28;20149;-71
2022/01/19 01:32:32;;;;;;;42.22;17.60;;;12.90;2201.60;;;;;;5013368;28;20038;-71
2022/01/19 01:34:58;;;;;;;32.72;16.17;;;12.90;2201.60;;;;;;5012845;28;20473;-71
2022/01/19 01:37:24;;;;;;;35.33;18.95;;;12.90;2201.60;;;;;;5002805;28;20038;-70
2022/01/19 01:39:50;;;;;;;36.83;17.38;;;12.90;2201.60;;;;;;4993427;28;20072;-71
2022/01/19 01:42:19;;;;;;;34.20;16.52;;;12.90;2201.60;;;;;;4993365;28;20370;-70
2022/01/19 01:44:49;;;;;;;31.80;15.88;;;0.00;2201.60;;;;;;4992181;28;20042;-70
2022/01/19 01:47:19;;;;;;;31.58;15.98;;;12.90;2201.60;;;;;;4993099;28;20037;-70
2022/01/19 01:55:12;;;;;;;34.50;17.33;;;13.00;2201.60;;;;;;4997814;28;20053;-70
2022/01/19 01:57:38;;;;;;;34.22;15.38;;;13.00;2201.60;;;;;;4994951;28;20046;-70
2022/01/19 02:00:06;;;;;;;37.97;16.88;;;12.90;2201.60;;;;;;5012507;28;20038;-70
2022/01/19 02:02:32;;;;;;;37.97;16.58;;;12.90;2201.60;;;;;;5012872;28;20064;-70
2022/01/19 02:04:58;;;;;;;35.20;16.60;;;13.00;2201.60;;;;;;5012553;28;20382;-70
2022/01/19 02:10:03;;;;;;;32.42;19.13;;;13.00;2201.60;;;;;;5012908;28;20037;-70
2022/01/19 02:23:36;;;;;;;38.65;19.08;;;13.10;2201.60;;;;;;5011869;28;20049;-70
2022/01/19 02:26:11;;;;;;;43.83;20.90;;;13.10;2201.60;;;;;;5012248;28;20040;-70
2022/01/19 02:41:43;;;;;;;41.30;19.38;;;13.10;2201.60;;;;;;5012051;28;20171;-70
2022/01/19 02:44:12;;;;;;;37.25;16.35;;;13.10;2201.60;;;;;;4993895;28;20026;-69
2022/01/19 02:49:28;;;;;;;35.65;16.30;;;13.10;2201.60;;;;;;4951188;29;20122;-69
2022/01/19 02:51:54;;;;;;;41.58;18.48;;;13.20;2201.60;;;;;;4950930;29;20103;-70
2022/01/19 02:54:24;;;;;;;28.95;15.05;;;13.20;2201.60;;;;;;4951055;29;20042;-70
2022/01/19 02:56:53;;;;;;;29.92;15.00;;;13.10;2201.60;;;;;;4950766;29;20072;-69
2022/01/19 02:59:34;;;;;;;32.25;17.63;;;13.20;2201.60;;;;;;4951169;29;20095;-70
2022/01/19 03:10:12;;;;;;;33.55;16.98;;;13.30;2201.60;;;;;;4950451;29;20062;-70
2022/01/19 03:12:38;;;;;;;33.42;16.17;;;13.30;2201.60;;;;;;4934588;29;20039;-69
2022/01/19 03:15:07;;;;;;;38.22;17.27;;;13.30;2201.60;;;;;;4951122;29;20487;-69
2022/01/19 03:17:33;;;;;;;35.95;19.50;;;13.30;2201.60;;;;;;4950729;29;20098;-69
2022/01/19 03:19:58;;;;;;;37.17;18.95;;;13.40;2201.60;;;;;;4950882;29;20043;-69
2022/01/19 03:22:31;;;;;;;44.58;19.85;;;13.40;2201.60;;;;;;4951090;29;20139;-70
2022/01/19 03:24:57;;;;;;;44.90;22.08;;;13.40;2201.60;;;;;;4934461;29;20047;-70
2022/01/19 03:27:23;;;;;;;40.75;18.85;;;13.30;2201.60;;;;;;5004236;28;20045;-69
2022/01/19 03:29:49;;;;;;;48.78;20.67;;;13.30;2201.60;;;;;;5009701;28;20117;-70
2022/01/19 03:32:14;;;;;;;40.70;19.58;;;13.40;2201.60;;;;;;5011532;28;20110;-69
2022/01/19 03:34:41;;;;;;;44.50;18.75;;;13.40;2201.60;;;;;;5012238;28;20038;-70
2022/01/19 03:37:08;;;;;;;38.90;20.30;;;13.50;2201.60;;;;;;5015075;28;20759;-70
2022/01/19 03:39:34;;;;;;;47.78;21.45;;;13.50;2201.60;;;;;;5014694;28;20141;-69
2022/01/19 03:42:00;;;;;;;49.33;20.05;;;13.40;2201.60;;;;;;5014597;28;20787;-69
2022/01/19 03:44:26;;;;;;;34.25;18.90;;;13.40;2201.60;;;;;;5015169;28;20048;-69
2022/01/19 03:46:56;;;;;;;44.25;17.60;;;13.60;2201.60;;;;;;4996923;28;20044;-69
2022/01/19 03:49:24;;;;;;;38.42;17.77;;;13.60;2201.60;;;;;;4997453;28;20076;-69
2022/01/19 03:52:02;;;;;;;41.33;19.48;;;13.60;2201.60;;;;;;4996851;28;20034;-69
2022/01/19 03:54:41;;;;;;;33.58;18.98;;;13.70;2201.60;;;;;;5014705;28;20121;-70
2022/01/19 03:57:07;;;;;;;42.75;17.67;;;38.40;2201.60;;;;;;4996870;28;20050;-69
2022/01/19 03:59:33;;;;;;;38.40;18.10;;;38.40;2201.60;;;;;;5014617;28;20034;-69
2022/01/19 04:01:59;;;;;;;38.45;19.70;;;38.40;2201.60;;;;;;4997206;28;20049;-71
2022/01/19 04:04:50;;;;;;;48.03;22.83;;;38.40;2201.60;;;;;;4996943;28;20095;-71
2022/01/19 04:07:16;;;;;;;49.58;22.27;;;38.50;2201.60;;;;;;4996767;28;20511;-71
2022/01/19 04:09:44;;;;;;;46.38;21.63;;;38.40;2201.60;;;;;;5014843;28;20065;-71
2022/01/19 04:12:15;;;;;;;36.63;22.35;;;38.40;2201.60;;;;;;4996994;28;20033;-71
2022/01/19 04:14:41;;;;;;;41.70;20.20;;;38.40;2201.60;;;;;;5014854;28;20030;-71
2022/01/19 04:17:10;;;;;;;44.47;22.17;;;38.50;2201.60;;;;;;4996899;28;20034;-72
2022/01/19 04:19:43;;;;;;;39.72;19.13;;;38.50;2201.60;;;;;;5014759;28;20608;-71
2022/01/19 04:22:17;;;;;;;35.08;21.75;;;38.50;2201.60;;;;;;5014513;28;20045;-70
2022/01/19 04:24:43;;;;;;;40.35;20.75;;;38.50;2201.60;;;;;;5013999;28;20038;-71
2022/01/19 04:30:00;;;;;;;34.95;18.90;;;38.60;2201.60;;;;;;5014319;28;20030;-71
2022/01/19 04:33:01;;;;;;;42.88;20.83;;;38.60;2201.60;;;;;;4996382;28;20057;-71
2022/01/19 04:35:18;;;;;;;39.63;16.70;;;38.60;2201.60;;;;;;5013993;28;20068;-71
2022/01/19 05:07:20;;;;;;;34.08;17.42;;;38.50;2201.60;;;;;;4951943;28;20443;-71
2022/01/19 05:15:06;;;;;;;37.55;16.73;;;38.40;2201.60;;;;;;4952062;28;20042;-70
2022/01/19 05:17:33;;;;;;;31.33;17.52;;;38.40;2201.60;;;;;;4951944;28;20735;-71
2022/01/19 05:19:59;;;;;;;45.05;20.80;;;38.50;2201.60;;;;;;4951483;28;20040;-71
2022/01/19 05:22:25;;;;;;;31.25;16.83;;;38.40;2201.60;;;;;;4952015;28;20091;-72
2022/01/19 05:24:51;;;;;;;39.55;18.67;;;38.40;2201.60;;;;;;4959517;28;20493;-72
2022/01/19 05:27:20;;;;;;;34.35;17.80;;;38.50;2201.60;;;;;;4972348;28;20523;-71
2022/01/19 05:29:46;;;;;;;40.63;18.23;;;38.50;2201.60;;;;;;4955607;28;20043;-70
2022/01/19 05:32:12;;;;;;;30.67;16.90;;;38.50;2201.60;;;;;;4959227;28;20089;-70
2022/01/19 05:34:38;;;;;;;39.28;18.42;;;38.40;2201.60;;;;;;4992214;28;20429;-70
2022/01/19 05:37:04;;;;;;;42.88;17.85;;;38.40;2201.60;;;;;;4991582;28;20109;-71
2022/01/19 05:39:30;;;;;;;38.47;18.55;;;38.40;2201.60;;;;;;4992011;28;20037;-71
2022/01/19 05:41:56;;;;;;;45.90;20.77;;;38.40;2201.60;;;;;;4991705;28;20034;-71
2022/01/19 05:44:22;;;;;;;41.10;21.73;;;38.40;2201.60;;;;;;4992351;28;20524;-70
2022/01/19 05:46:47;;;;;;;43.33;22.73;;;38.40;2201.60;;;;;;4992585;28;20122;-70
2022/01/19 05:49:13;;;;;;;42.15;21.23;;;38.40;2201.60;;;;;;4993241;28;20030;-70
2022/01/19 05:51:39;;;;;;;45.67;21.73;;;38.40;2201.60;;;;;;4992754;28;20034;-70
2022/01/19 05:54:06;;;;;;;51.88;19.98;;;38.40;2201.60;;;;;;4975743;28;20031;-71
2022/01/19 05:56:32;;;;;;;43.70;21.70;;;38.40;2201.60;;;;;;5008123;28;20054;-70
2022/01/19 05:58:59;;;;;;;38.47;19.65;;;38.40;2201.60;;;;;;5012034;28;20133;-71
2022/01/19 06:01:25;;;;;;;38.20;18.80;;;38.40;2201.60;;;;;;5011824;28;20114;-70
2022/01/19 06:03:52;;;;;;;50.30;23.75;;;38.40;2201.60;;;;;;4994497;28;20120;-71
2022/01/19 06:06:18;;;;;;;48.55;22.13;;;38.40;2201.60;;;;;;5001920;28;20168;-70
2022/01/19 06:08:48;;;;;;;45.78;25.45;;;13.70;2201.60;;;;;;5012097;28;20042;-71
2022/01/19 06:11:14;;;;;;;61.15;27.73;;;13.70;2201.60;;;;;;5012357;28;20032;-71
2022/01/19 06:13:40;;;;;;;54.42;27.45;;;13.60;2201.60;;;;;;4993990;28;20378;-70
2022/01/19 06:16:06;;;;;;;44.80;25.23;;;13.60;2201.60;;;;;;5005558;28;20041;-70
2022/01/19 06:18:33;;;;;;;50.65;25.27;;;13.50;2201.60;;;;;;5011228;28;20041;-70
2022/01/19 06:20:58;;;;;;;79.40;40.70;;;13.50;2201.60;;;;;;5011311;28;20049;-70
2022/01/19 06:23:24;;;;;;;51.28;22.33;;;13.50;2201.60;;;;;;5011117;28;20080;-70
2022/01/19 06:25:51;;;;;;;46.83;20.85;;;13.40;2201.60;;;;;;5009347;28;20061;-71
2022/01/19 06:28:17;;;;;;;51.10;21.98;;;13.40;2201.60;;;;;;5010412;28;20507;-70
2022/01/19 06:30:43;;;;;;;39.13;19.23;;;13.30;2201.60;;;;;;4992959;28;20030;-71
2022/01/19 06:33:08;;;;;;;38.50;18.52;;;13.30;2201.60;;;;;;5010233;28;20675;-71
2022/01/19 06:35:34;;;;;;;55.25;23.58;;;13.30;2201.60;;;;;;4992558;28;20072;-72
2022/01/19 06:38:00;;;;;;;55.72;29.50;;;13.20;2201.60;;;;;;4993365;28;20041;-71
2022/01/19 06:40:27;;;;;;;60.45;32.10;;;13.30;2201.60;;;;;;5010689;28;20109;-70
2022/01/19 06:42:54;;;;;;;62.30;30.65;;;13.20;2201.60;;;;;;5011514;28;20022;-70
2022/01/19 06:45:22;;;;;;;77.35;33.75;;;13.30;2201.60;;;;;;5009115;28;20065;-70
2022/01/19 06:47:48;;;;;;;59.85;29.58;;;13.20;2201.60;;;;;;4989870;28;20064;-70
2022/01/19 06:50:19;;;;;;;62.85;31.27;;;13.20;2201.60;;;;;;4997030;28;20026;-71
2022/01/19 06:52:45;;;;;;;83.07;41.55;;;13.10;2201.60;;;;;;4992632;28;20065;-70
2022/01/19 06:55:11;;;;;;;86.82;44.50;;;13.10;2201.60;;;;;;4992514;28;20068;-70
2022/01/19 06:57:37;;;;;;;73.63;38.28;;;13.10;2201.60;;;;;;5011081;28;20545;-70
2022/01/19 07:00:04;;;;;;;90.22;47.42;;;13.10;2201.60;;;;;;5011263;28;20045;-70
2022/01/19 07:02:30;;;;;;;92.43;48.90;;;13.00;2201.60;;;;;;5011318;28;20065;-70
2022/01/19 07:04:56;;;;;;;91.18;47.25;;;13.00;2201.60;;;;;;5011552;28;20069;-70
2022/01/19 07:07:22;;;;;;;110.90;52.63;;;12.90;2201.60;;;;;;5010710;28;20042;-70
2022/01/19 07:09:49;;;;;;;105.88;59.17;;;12.90;2201.60;;;;;;5010031;28;20037;-70
2022/01/19 07:12:15;;;;;;;132.73;74.13;;;12.90;2201.60;;;;;;5011276;28;20057;-70
2022/01/19 07:14:41;;;;;;;79.97;41.35;;;12.90;2201.60;;;;;;5011372;28;20065;-71
2022/01/19 07:17:07;;;;;;;82.40;37.80;;;12.90;2201.60;;;;;;4993837;28;20037;-70
2022/01/19 07:19:32;;;;;;;94.65;47.85;;;13.00;2201.60;;;;;;5009282;28;20113;-70
2022/01/19 07:21:58;;;;;;;79.00;42.10;;;12.90;2201.60;;;;;;5011555;28;20034;-70
2022/01/19 07:24:24;;;;;;;75.40;43.70;;;0.00;2201.60;;;;;;4993383;28;20030;-70
2022/01/19 07:26:50;;;;;;;82.00;45.67;;;0.10;2201.60;;;;;;5011432;28;20045;-70
2022/01/19 07:29:16;;;;;;;87.07;46.75;;;0.20;2201.60;;;;;;5011103;28;20085;-70
2022/01/19 07:31:42;;;;;;;93.90;48.03;;;0.20;2201.60;;;;;;5011307;28;20037;-70
2022/01/19 07:34:08;;;;;;;92.18;46.72;;;0.30;2201.60;;;;;;5010917;28;20045;-70
2022/01/19 07:36:35;;;;;;;93.97;45.50;;;0.30;2201.60;;;;;;5010898;28;20034;-70
2022/01/19 07:39:00;;;;;;;102.53;50.50;;;0.20;2201.60;;;;;;5010727;28;20022;-70
2022/01/19 07:41:26;;;;;;;86.55;44.25;;;0.20;2201.60;;;;;;5011032;28;20164;-70
2022/01/19 07:43:52;;;;;;;181.02;87.47;;;0.30;2201.60;;;;;;5011526;28;20034;-71
2022/01/19 07:46:18;;;;;;;159.82;78.57;;;0.30;2201.60;;;;;;5011085;28;20026;-71
2022/01/19 07:48:44;;;;;;;110.65;51.95;;;0.40;2201.60;;;;;;5011544;28;20033;-70
2022/01/19 07:51:10;;;;;;;70.13;34.80;;;0.50;2201.60;;;;;;4993307;28;20065;-70
2022/01/19 07:53:37;;;;;;;57.17;29.00;;;0.60;2201.60;;;;;;5011209;28;20034;-70
2022/01/19 07:56:04;;;;;;;47.67;23.40;;;0.70;2201.60;;;;;;5010657;28;20046;-71
2022/01/19 07:58:30;;;;;;;42.28;20.92;;;0.70;2201.60;;;;;;5011199;28;20046;-70
2022/01/19 08:00:56;;;;;;;39.70;20.38;;;0.80;2201.60;;;;;;5010467;28;20049;-71
2022/01/19 08:03:22;;;;;;;43.15;19.25;;;25.60;2201.60;;;;;;4992527;28;20060;-70
2022/01/19 08:05:48;;;;;;;41.53;19.48;;;25.60;2201.60;;;;;;4992765;28;20100;-70
2022/01/19 08:08:14;;;;;;;42.10;22.40;;;25.60;2201.60;;;;;;5010057;28;20029;-71
2022/01/19 08:10:42;;;;;;;38.33;20.30;;;25.70;2201.60;;;;;;4993372;28;20034;-71
2022/01/19 08:13:09;;;;;;;53.30;23.77;;;25.70;2201.60;;;;;;5010508;28;20034;-71
2022/01/19 08:15:35;;;;;;;50.00;25.42;;;25.80;2201.60;;;;;;5010954;28;20026;-71
2022/01/19 08:18:01;;;;;;;55.08;29.90;;;25.90;2201.60;;;;;;4993030;28;20041;-71
2022/01/19 08:20:27;;;;;;;42.22;23.60;;;25.90;2201.60;;;;;;4995547;28;20033;-71
2022/01/19 08:22:52;;;;;;;50.70;22.50;;;26.10;2201.60;;;;;;5012138;28;20070;-71
2022/01/19 08:25:18;;;;;;;37.17;18.85;;;26.10;2201.60;;;;;;4996825;28;20069;-71
2022/01/19 08:27:44;;;;;;;35.80;19.95;;;26.20;2201.60;;;;;;5013984;28;20046;-71
2022/01/19 08:30:12;;;;;;;34.03;19.67;;;26.20;2201.60;;;;;;5014454;28;20519;-71
2022/01/19 08:32:38;;;;;;;44.75;20.63;;;26.30;2201.60;;;;;;5011046;28;20061;-71
2022/01/19 08:35:05;;;;;;;38.58;18.83;;;26.30;2201.60;;;;;;4987586;28;20034;-71
2022/01/19 08:37:31;;;;;;;38.95;19.63;;;26.40;2201.60;;;;;;5013470;28;20514;-71
2022/01/19 08:39:58;;;;;;;33.08;19.00;;;26.50;2201.60;;;;;;5013032;28;20060;-71
2022/01/19 08:42:24;;;;;;;41.50;19.90;;;51.20;2227.20;;;;;;5013401;28;20030;-71
2022/01/19 08:44:49;;;;;;;32.75;18.27;;;51.30;2227.20;;;;;;4994648;28;20037;-71
2022/01/19 08:47:15;;;;;;;30.17;15.45;;;51.30;2227.20;;;;;;5011612;28;20045;-71
2022/01/19 08:49:41;;;;;;;33.70;18.45;;;51.40;2227.20;;;;;;5011350;28;20030;-71
2022/01/19 08:52:07;;;;;;;42.28;17.10;;;51.40;2227.20;;;;;;5012073;28;20064;-70
2022/01/19 08:54:33;;;;;;;33.65;16.23;;;51.60;2227.20;;;;;;5011600;28;20033;-70
2022/01/19 08:57:04;;;;;;;34.25;16.73;;;51.70;2227.20;;;;;;5010760;28;20044;-70
2022/01/19 08:59:31;;;;;;;29.20;16.67;;;51.80;2227.20;;;;;;5011666;28;20053;-70
2022/01/19 09:01:57;;;;;;;32.38;17.65;;;51.90;2227.20;;;;;;5010964;28;20029;-70
2022/01/19 09:04:24;;;;;;;26.40;15.18;;;51.90;2227.20;;;;;;5010992;28;20125;-70
2022/01/19 09:06:50;;;;;;;34.80;17.83;;;52.00;2227.20;;;;;;5010249;28;20034;-71
2022/01/19 09:09:16;;;;;;;35.55;17.88;;;76.80;2227.20;;;;;;5012361;28;20064;-71
2022/01/19 09:11:43;;;;;;;27.90;17.48;;;77.00;2227.20;;;;;;5012659;28;20721;-72
2022/01/19 09:14:10;;;;;;;33.53;17.13;;;77.20;2227.20;;;;;;4995319;28;20775;-71
2022/01/19 09:16:36;;;;;;;34.17;17.83;;;102.40;2227.20;;;;;;5006093;28;20080;-72
2022/01/19 09:19:06;;;;;;;36.03;17.23;;;102.70;2227.20;;;;;;5012638;28;20393;-72
2022/01/19 09:21:32;;;;;;;34.70;17.38;;;102.90;2227.20;;;;;;5012233;28;20142;-72
2022/01/19 09:23:58;;;;;;;36.13;17.30;;;102.90;2227.20;;;;;;4994101;28;20048;-72
2022/01/19 09:26:24;;;;;;;37.95;22.52;;;128.00;2252.80;;;;;;5010138;28;20831;-72
2022/01/19 09:28:49;;;;;;;33.65;18.98;;;103.30;2227.20;;;;;;5010004;28;20034;-71
2022/01/19 09:31:18;;;;;;;36.03;19.70;;;128.10;2252.80;;;;;;5012436;28;20056;-72
2022/01/19 09:33:52;;;;;;;31.70;18.65;;;128.30;2252.80;;;;;;4993146;28;20034;-72
2022/01/19 09:36:31;;;;;;;41.72;22.80;;;128.10;2252.80;;;;;;5009195;28;20033;-72
2022/01/19 09:38:57;;;;;;;43.60;20.45;;;128.10;2252.80;;;;;;4997888;28;20370;-73
2022/01/19 09:41:23;;;;;;;43.25;19.60;;;128.30;2252.80;;;;;;4990356;28;20065;-73
2022/01/19 09:43:49;;;;;;;36.30;18.27;;;128.50;2252.80;;;;;;5011976;28;20084;-72
2022/01/19 09:46:15;;;;;;;45.97;22.80;;;128.50;2252.80;;;;;;4988853;28;20038;-73
2022/01/19 09:48:41;;;;;;;39.60;21.77;;;128.40;2252.80;;;;;;5012241;28;20112;-71
2022/01/19 09:51:07;;;;;;;65.25;31.02;;;128.70;2252.80;;;;;;5010894;28;20030;-72
2022/01/19 09:53:33;;;;;;;108.88;47.88;;;128.60;2252.80;;;;;;5012180;28;20445;-72
2022/01/19 09:56:00;;;;;;;37.03;19.58;;;128.70;2252.80;;;;;;5011210;28;20123;-72
2022/01/19 09:58:25;;;;;;;34.00;15.27;;;154.00;2252.80;;;;;;5010751;28;20038;-72
2022/01/19 10:00:52;;;;;;;29.27;17.08;;;154.40;2252.80;;;;;;5001892;28;20041;-73
2022/01/19 10:03:26;;;;;;;56.85;28.52;;;179.50;2252.80;;;;;;4995965;28;20045;-72
2022/01/19 10:06:11;;;;;;;42.30;24.70;;;154.30;2252.80;;;;;;5011429;28;20568;-72
2022/01/19 10:08:47;;;;;;;46.38;25.10;;;154.30;2252.80;;;;;;4993055;28;20095;-72
2022/01/19 10:16:58;;;;;;;33.67;18.23;;;154.20;2252.80;;;;;;5011932;28;20022;-73
2022/01/19 10:17:00;;;;;;;30.52;16.60;;;179.70;2252.80;;;;;;5011753;28;20100;-73
2022/01/19 10:19:50;;;;;;;35.60;17.67;;;179.60;2252.80;;;;;;5011326;28;20053;-73
2022/01/19 10:22:22;;;;;;;32.17;19.33;;;205.00;2252.80;;;;;;5010825;28;20101;-73
2022/01/19 10:24:52;;;;;;;32.78;15.52;;;179.70;2252.80;;;;;;5011606;28;20036;-73
2022/01/19 10:27:38;;;;;;;35.08;17.98;;;180.00;2252.80;;;;;;4991576;28;20041;-73
2022/01/19 10:30:04;;;;;;;43.75;19.48;;;204.80;2252.80;;;;;;4993700;28;20404;-73
2022/01/19 10:32:34;;;;;;;30.90;16.10;;;204.90;2252.80;;;;;;4994519;28;20038;-74
2022/01/19 10:35:12;;;;;;;31.92;13.82;;;204.90;2252.80;;;;;;5011053;28;20036;-73
2022/01/19 10:37:38;;;;;;;37.08;18.23;;;205.60;2252.80;;;;;;5009581;28;20030;-73
2022/01/19 10:40:04;;;;;;;27.98;15.02;;;205.40;2252.80;;;;;;5010450;28;20037;-73
2022/01/19 10:42:31;;;;;;;31.02;13.93;;;205.60;2252.80;;;;;;5009486;28;20076;-74
2022/01/19 10:45:08;;;;;;;27.00;15.63;;;230.40;2252.80;;;;;;4992925;28;20592;-74
2022/01/19 10:47:42;;;;;;;25.75;14.85;;;205.70;2252.80;;;;;;5010904;28;20034;-73
2022/01/19 10:50:10;;;;;;;30.13;16.15;;;205.20;2252.80;;;;;;5009637;28;20026;-73
2022/01/19 10:52:42;;;;;;;37.17;19.40;;;205.40;2252.80;;;;;;5008318;28;20066;-74
2022/01/19 10:55:12;;;;;;;39.85;18.13;;;205.20;2252.80;;;;;;5010421;28;20397;-73
2022/01/19 10:57:40;;;;;;;36.25;22.05;;;230.50;2252.80;;;;;;5010629;28;20129;-72
2022/01/19 11:00:33;;;;;;;31.00;19.00;;;230.60;2252.80;;;;;;4989656;28;20116;-74
2022/01/19 11:03:15;;;;;;;32.42;16.42;;;231.10;2252.80;;;;;;4973935;28;20035;-74
2022/01/19 11:05:43;;;;;;;32.67;15.85;;;231.10;2252.80;;;;;;4991821;28;20450;-74
2022/01/19 11:08:09;;;;;;;38.95;17.08;;;230.90;2252.80;;;;;;5004499;28;20069;-74
2022/01/19 11:10:36;;;;;;;31.02;15.73;;;231.20;2252.80;;;;;;4992955;28;20030;-75
2022/01/19 11:13:01;;;;;;;24.00;13.80;;;256.20;2252.80;;;;;;5003443;28;20085;-75
2022/01/19 11:15:27;;;;;;;31.30;15.25;;;256.50;2252.80;;;;;;5009356;28;20030;-75
2022/01/19 11:17:53;;;;;;;30.85;13.15;;;256.20;2252.80;;;;;;4991478;28;20504;-76
2022/01/19 11:20:23;;;;;;;28.02;14.90;;;256.60;2252.80;;;;;;5001237;28;20532;-74
2022/01/19 11:23:13;;;;;;;35.65;17.10;;;281.90;2278.40;;;;;;4993234;28;20578;-74
2022/01/19 11:25:51;;;;;;;43.70;24.88;;;256.40;2252.80;;;;;;5009683;28;20045;-74
2022/01/19 11:28:27;;;;;;;59.63;31.98;;;256.20;2252.80;;;;;;5001742;28;20509;-75
2022/01/19 11:30:53;;;;;;;31.05;18.30;;;256.40;2252.80;;;;;;4998290;28;20042;-75
2022/01/19 11:33:29;;;;;;;26.35;16.10;;;256.20;2252.80;;;;;;5004326;28;20034;-74
2022/01/19 11:36:01;;;;;;;28.98;15.75;;;256.50;2252.80;;;;;;5011234;28;20026;-75
2022/01/19 11:38:35;;;;;;;32.58;17.05;;;282.10;2176.00;;;;;;4992624;28;20061;-74
2022/01/19 11:41:09;;;;;;;32.03;16.83;;;307.20;2124.80;;;;;;5007818;28;20108;-75
2022/01/19 11:43:38;;;;;;;32.78;18.38;;;307.30;2048.00;;;;;;5009775;28;20559;-75
2022/01/19 11:46:05;;;;;;;39.35;21.20;;;282.30;2022.40;;;;;;5008688;28;20137;-75
2022/01/19 11:48:35;;;;;;;28.83;13.98;;;256.70;2252.80;;;;;;5010754;28;20030;-75
2022/01/19 11:51:24;;;;;;;33.58;15.48;;;256.80;2252.80;;;;;;5010038;28;20389;-75
2022/01/19 11:54:07;;;;;;;30.90;16.83;;;282.20;2124.80;;;;;;5009151;28;20034;-75
2022/01/19 11:56:53;;;;;;;37.63;20.85;;;282.10;2150.40;;;;;;5005862;28;20050;-74
2022/01/19 11:59:20;;;;;;;23.45;15.30;;;282.40;2201.60;;;;;;4994356;28;20077;-75
2022/01/19 12:01:45;;;;;;;51.30;23.02;;;307.50;1945.60;;;;;;4988542;28;20054;-74
2022/01/19 12:04:22;;;;;;;71.70;37.80;;;307.30;2073.60;;;;;;4993418;28;20121;-74
2022/01/19 12:06:48;;;;;;;;;;;307.20;2099.20;;;;;;4995439;28;20037;-73
2022/01/19 12:09:15;;;;;;;41.85;21.42;;;282.40;2150.40;;;;;;5012723;28;20015;-74
2022/01/19 12:11:53;;;;;;;37.63;19.13;;;281.90;2201.60;;;;;;4996650;28;20078;-74
2022/01/19 12:14:36;;;;;;;61.92;29.70;;;281.70;2252.80;;;;;;4994810;28;20451;-74
2022/01/19 12:17:14;;;;;;;28.98;16.55;;;256.70;2252.80;;;;;;5009807;28;20480;-74
2022/01/19 12:19:42;;;;;;;37.00;21.70;;;282.30;2201.60;;;;;;4996494;28;20038;-74
2022/01/19 12:22:20;;;;;;;25.63;14.80;;;282.10;2278.40;;;;;;5005118;28;20104;-74
2022/01/19 12:24:57;;;;;;;30.83;14.63;;;281.80;2252.80;;;;;;5012862;28;20042;-74
2022/01/19 12:27:25;;;;;;;41.70;21.20;;;256.90;2201.60;;;;;;4996230;28;20099;-74
2022/01/19 12:30:01;;;;;;;27.42;15.60;;;281.60;2278.40;;;;;;5012586;28;20175;-74
2022/01/19 12:32:26;;;;;;;24.95;15.10;;;282.40;2150.40;;;;;;5014323;28;20393;-74
2022/01/19 12:34:55;;;;;;;26.70;16.13;;;307.30;2099.20;;;;;;5013546;28;20037;-73
2022/01/19 12:37:35;;;;;;;31.60;19.27;;;307.30;2124.80;;;;;;5020276;28;20033;-74
2022/01/19 12:40:16;;;;;;;32.22;16.27;;;282.10;2227.20;;;;;;5033963;28;20160;-74
2022/01/19 12:42:51;;;;;;;29.00;15.40;;;282.20;2278.40;;;;;;5014799;28;20037;-75
2022/01/19 12:45:21;;;;;;;26.95;15.07;;;281.70;2278.40;;;;;;5028575;28;20034;-75
2022/01/19 12:47:52;;;;;;;30.83;16.25;;;281.60;2278.40;;;;;;5009713;28;20173;-75
2022/01/19 12:50:17;;;;;;;32.08;16.77;;;282.20;2176.00;;;;;;5012238;28;20040;-75
2022/01/19 12:52:45;;;;;;;28.55;17.42;;;282.10;2278.40;;;;;;5011852;28;20038;-73
2022/01/19 12:55:15;;;;;;;35.80;21.00;;;281.80;2278.40;;;;;;5011449;28;20050;-74
2022/01/19 12:57:41;;;;;;;30.08;17.15;;;281.70;2278.40;;;;;;4995383;28;20408;-74
2022/01/19 13:00:23;;;;;;;24.90;14.85;;;282.10;2099.20;;;;;;5011112;28;20033;-74
2022/01/19 13:02:48;;;;;;;33.13;16.58;;;282.10;2201.60;;;;;;4990608;28;20034;-74
2022/01/19 13:05:18;;;;;;;25.92;13.85;;;282.30;2227.20;;;;;;5010747;28;20026;-73
2022/01/19 13:07:56;;;;;;;32.97;14.68;;;282.20;2124.80;;;;;;5010256;28;20089;-73
2022/01/19 13:10:43;;;;;;;26.85;12.90;;;256.70;2252.80;;;;;;4992966;28;20045;-74
2022/01/19 13:13:27;;;;;;;32.08;15.32;;;256.50;2252.80;;;;;;5011525;28;20033;-73
2022/01/19 13:16:00;;;;;;;31.02;14.95;;;256.90;2252.80;;;;;;4989434;28;20041;-73
2022/01/19 13:18:42;;;;;;;23.75;13.73;;;282.00;2201.60;;;;;;4993802;28;20170;-74
2022/01/19 13:21:17;;;;;;;31.83;16.15;;;282.20;2124.80;;;;;;5010326;28;20042;-73
2022/01/19 13:24:26;;;;;;;40.58;16.52;;;256.80;2252.80;;;;;;5009758;28;20037;-73
2022/01/19 13:26:55;;;;;;;25.65;13.88;;;256.10;2252.80;;;;;;4929918;29;20051;-74
2022/01/19 13:29:35;;;;;;;28.98;15.55;;;256.20;2252.80;;;;;;4932427;29;20058;-75
2022/01/19 13:32:04;;;;;;;56.08;25.17;;;256.30;2252.80;;;;;;4917040;29;20032;-73
2022/01/19 13:34:33;;;;;;;60.15;31.95;;;256.40;2252.80;;;;;;4932688;29;20043;-75
2022/01/19 13:37:01;;;;;;;36.17;18.25;;;256.40;2252.80;;;;;;4920469;28;20096;-75
2022/01/19 13:39:32;;;;;;;38.40;17.65;;;256.10;2252.80;;;;;;4918516;29;20130;-75
2022/01/19 13:42:00;;;;;;;35.53;19.27;;;256.00;2252.80;;;;;;4914985;29;20881;-73
2022/01/19 13:44:31;;;;;;;32.55;16.05;;;256.10;2252.80;;;;;;4932638;29;20032;-73